createdAt,value
2023-02-04T00:00:19.889Z,56.84
2023-02-04T00:02:46.662Z,56.94
2023-02-04T00:05:13.542Z,57.15
2023-02-04T00:07:41.421Z,57.20
2023-02-04T00:10:09.015Z,57.19
2023-02-04T00:12:35.737Z,57.33
2023-02-04T00:15:02.803Z,57.25
2023-02-04T00:17:29.520Z,57.20
2023-02-04T00:19:56.240Z,57.47
2023-02-04T00:22:23.047Z,57.72
2023-02-04T00:24:50.477Z,57.36
2023-02-04T00:27:17.362Z,57.25
2023-02-04T00:29:44.092Z,57.54
2023-02-04T00:32:11.022Z,57.54
2023-02-04T00:34:37.823Z,57.47
2023-02-04T00:37:04.579Z,57.80
2023-02-04T00:39:31.722Z,57.73
2023-02-04T00:41:58.598Z,57.94
2023-02-04T00:44:25.340Z,57.64
2023-02-04T00:46:52.220Z,57.78
2023-02-04T00:49:18.944Z,57.56
2023-02-04T00:51:46.470Z,57.64
2023-02-04T00:54:15.642Z,57.56
2023-02-04T00:56:43.226Z,57.70
2023-02-04T00:59:10.446Z,58.07
2023-02-04T01:01:37.657Z,58.21
2023-02-04T01:04:04.708Z,57.63
2023-02-04T01:06:31.449Z,57.98
2023-02-04T01:08:58.146Z,57.87
2023-02-04T01:11:25.242Z,58.09
2023-02-04T01:13:51.984Z,57.68
2023-02-04T01:16:18.737Z,57.78
2023-02-04T01:18:45.698Z,57.89
2023-02-04T01:21:12.426Z,58.17
2023-02-04T01:23:39.166Z,57.82
2023-02-04T01:26:07.896Z,57.90
2023-02-04T01:28:34.651Z,57.67
2023-02-04T01:31:01.493Z,57.46
2023-02-04T01:33:28.225Z,57.53
2023-02-04T01:35:55.057Z,57.39
2023-02-04T01:38:21.840Z,57.67
2023-02-04T01:40:48.592Z,57.49
2023-02-04T01:43:17.675Z,57.85
2023-02-04T01:45:46.006Z,57.87
2023-02-04T01:48:14.063Z,57.87
2023-02-04T01:50:40.766Z,58.09
2023-02-04T01:53:07.501Z,57.96
2023-02-04T01:55:34.416Z,58.00
2023-02-04T01:58:03.018Z,57.81
2023-02-04T02:00:33.213Z,57.75
2023-02-04T02:03:00.360Z,58.08
2023-02-04T02:05:31.673Z,57.57
2023-02-04T02:08:00.555Z,57.60
2023-02-04T02:10:27.842Z,57.28
2023-02-04T02:12:55.682Z,57.31
2023-02-04T02:15:23.473Z,57.20
2023-02-04T02:17:50.935Z,57.31
2023-02-04T02:20:19.374Z,57.01
2023-02-04T02:23:03.017Z,57.00
2023-02-04T02:25:31.075Z,57.11
2023-02-04T02:27:58.399Z,57.19
2023-02-04T02:30:25.550Z,56.88
2023-02-04T02:32:52.451Z,57.18
2023-02-04T02:35:20.275Z,57.05
2023-02-04T02:37:46.973Z,57.57
2023-02-04T02:40:14.190Z,57.68
2023-02-04T02:42:42.971Z,57.73
2023-02-04T02:45:18.837Z,57.53
2023-02-04T02:47:45.574Z,57.51
2023-02-04T02:50:16.145Z,57.40
2023-02-04T02:52:42.925Z,57.54
2023-02-04T02:55:18.437Z,57.92
2023-02-04T02:57:46.658Z,57.93
2023-02-04T03:00:21.353Z,57.74
2023-02-04T03:02:55.822Z,57.84
2023-02-04T03:05:22.991Z,57.77
2023-02-04T03:07:49.695Z,57.76
2023-02-04T03:10:17.161Z,57.79
2023-02-04T03:12:45.930Z,57.88
2023-02-04T03:15:12.799Z,57.94
2023-02-04T03:17:39.716Z,57.85
2023-02-04T03:20:06.704Z,58.10
2023-02-04T03:22:33.663Z,58.23
2023-02-04T03:25:00.993Z,58.09
2023-02-04T03:27:28.377Z,57.98
2023-02-04T03:29:55.106Z,57.79
2023-02-04T03:32:21.847Z,57.69
2023-02-04T03:34:48.565Z,57.67
2023-02-04T03:37:15.341Z,57.90
2023-02-04T03:39:42.034Z,57.95
2023-02-04T03:42:08.732Z,57.92
2023-02-04T03:44:35.429Z,57.66
2023-02-04T03:47:02.161Z,57.60
2023-02-04T03:49:28.891Z,57.82
2023-02-04T03:51:55.578Z,57.64
2023-02-04T03:54:22.256Z,57.63
2023-02-04T03:56:48.943Z,57.52
2023-02-04T03:59:15.634Z,57.63
2023-02-04T04:01:42.395Z,57.76
2023-02-04T04:04:09.156Z,57.46
2023-02-04T04:06:35.915Z,57.66
2023-02-04T04:09:02.824Z,57.61
2023-02-04T04:11:29.569Z,57.32
2023-02-04T04:13:56.252Z,57.46
2023-02-04T04:16:23.301Z,57.64
2023-02-04T04:18:50.027Z,57.46
2023-02-04T04:21:16.741Z,57.38
2023-02-04T04:23:43.464Z,57.38
2023-02-04T04:26:10.190Z,57.34
2023-02-04T04:28:36.900Z,57.27
2023-02-04T04:31:03.741Z,57.40
2023-02-04T04:33:30.771Z,57.24
2023-02-04T04:35:57.496Z,57.36
2023-02-04T04:38:24.222Z,57.32
2023-02-04T04:40:50.907Z,57.46
2023-02-04T04:43:17.605Z,57.25
2023-02-04T04:45:44.389Z,57.52
2023-02-04T04:48:11.098Z,57.12
2023-02-04T04:50:37.922Z,57.11
2023-02-04T04:53:04.916Z,56.99
2023-02-04T04:55:32.632Z,57.32
2023-02-04T04:57:59.345Z,57.17
2023-02-04T05:00:26.125Z,57.16
2023-02-04T05:02:52.825Z,57.45
2023-02-04T05:05:19.533Z,57.29
2023-02-04T05:07:46.263Z,57.05
2023-02-04T05:10:12.944Z,57.21
2023-02-04T05:12:39.655Z,57.48
2023-02-04T05:15:06.467Z,57.30
2023-02-04T05:17:33.352Z,56.84
2023-02-04T05:20:00.509Z,56.96
2023-02-04T05:22:27.283Z,56.89
2023-02-04T05:24:54.022Z,56.97
2023-02-04T05:27:20.764Z,56.87
2023-02-04T05:29:47.543Z,57.19
2023-02-04T05:32:14.320Z,57.16
2023-02-04T05:34:41.132Z,56.96
2023-02-04T05:37:07.837Z,56.95
2023-02-04T05:39:34.574Z,56.92
2023-02-04T05:42:01.268Z,56.77
2023-02-04T05:44:27.978Z,57.03
2023-02-04T05:46:54.660Z,56.90
2023-02-04T05:49:21.452Z,56.77
2023-02-04T05:51:48.184Z,56.80
2023-02-04T05:54:19.283Z,57.11
2023-02-04T05:56:46.978Z,57.06
2023-02-04T05:59:13.668Z,56.97
2023-02-04T06:01:40.477Z,56.93
2023-02-04T06:04:07.305Z,57.02
2023-02-04T06:06:34.070Z,56.59
2023-02-04T06:09:01.044Z,57.00
2023-02-04T06:11:27.772Z,56.83
2023-02-04T06:13:54.480Z,56.69
2023-02-04T06:16:21.246Z,56.67
2023-02-04T06:18:47.987Z,56.52
2023-02-04T06:21:14.708Z,56.52
2023-02-04T06:23:41.409Z,56.81
2023-02-04T06:26:08.241Z,56.38
2023-02-04T06:28:34.986Z,56.51
2023-02-04T06:31:01.757Z,56.50
2023-02-04T06:33:28.567Z,56.40
2023-02-04T06:35:55.308Z,56.53
2023-02-04T06:38:22.059Z,56.60
2023-02-04T06:40:49.396Z,56.55
2023-02-04T06:43:16.401Z,56.64
2023-02-04T06:45:43.163Z,56.65
2023-02-04T06:48:09.958Z,56.20
2023-02-04T06:50:36.700Z,56.33
2023-02-04T06:53:03.461Z,56.49
2023-02-04T06:55:30.248Z,56.52
2023-02-04T06:57:56.960Z,56.31
2023-02-04T07:00:23.690Z,56.42
2023-02-04T07:02:50.464Z,56.53
2023-02-04T07:05:17.189Z,56.18
2023-02-04T07:07:43.885Z,56.42
2023-02-04T07:10:10.626Z,56.34
2023-02-04T07:12:37.319Z,56.17
2023-02-04T07:15:04.200Z,56.35
2023-02-04T07:17:30.921Z,56.30
2023-02-04T07:19:57.661Z,56.08
2023-02-04T07:22:24.358Z,56.33
2023-02-04T07:24:51.135Z,56.14
2023-02-04T07:27:17.825Z,56.15
2023-02-04T07:29:44.526Z,56.17
2023-02-04T07:32:11.248Z,56.17
2023-02-04T07:34:38.006Z,56.41
2023-02-04T07:37:04.812Z,56.16
2023-02-04T07:39:31.604Z,56.19
2023-02-04T07:41:58.328Z,56.17
2023-02-04T07:44:32.636Z,56.19
2023-02-04T07:47:00.648Z,56.30
2023-02-04T07:49:28.704Z,55.72
2023-02-04T07:51:55.452Z,56.01
2023-02-04T07:54:22.260Z,56.08
2023-02-04T07:56:48.977Z,56.11
2023-02-04T07:59:15.668Z,56.00
2023-02-04T08:01:42.419Z,56.03
2023-02-04T08:04:09.165Z,55.91
2023-02-04T08:06:36.396Z,55.72
2023-02-04T08:09:03.113Z,55.87
2023-02-04T08:11:29.838Z,55.96
2023-02-04T08:13:56.532Z,55.78
2023-02-04T08:16:23.324Z,56.04
2023-02-04T08:18:50.070Z,55.78
2023-02-04T08:21:18.723Z,55.73
2023-02-04T08:23:46.264Z,55.98
2023-02-04T08:26:12.986Z,55.62
2023-02-04T08:28:39.693Z,55.76
2023-02-04T08:31:07.071Z,55.69
2023-02-04T08:33:34.036Z,55.81
2023-02-04T08:36:00.767Z,55.93
2023-02-04T08:38:27.738Z,55.33
2023-02-04T08:40:54.563Z,55.76
2023-02-04T08:43:21.347Z,55.59
2023-02-04T08:45:48.055Z,55.61
2023-02-04T08:48:14.758Z,55.68
2023-02-04T08:50:41.433Z,55.58
2023-02-04T08:53:08.221Z,55.64
2023-02-04T08:55:35.187Z,55.71
2023-02-04T08:58:02.920Z,55.54
2023-02-04T09:00:30.352Z,55.49
2023-02-04T09:02:57.237Z,55.66
2023-02-04T09:05:23.960Z,56.05
2023-02-04T09:07:50.662Z,56.07
2023-02-04T09:10:17.431Z,55.58
2023-02-04T09:12:44.282Z,55.99
2023-02-04T09:15:11.888Z,55.63
2023-02-04T09:17:38.991Z,55.85
2023-02-04T09:20:06.471Z,55.74
2023-02-04T09:22:33.337Z,55.67
2023-02-04T09:25:00.021Z,55.70
2023-02-04T09:27:26.839Z,56.07
2023-02-04T09:29:53.538Z,55.85
2023-02-04T09:32:20.219Z,55.72
2023-02-04T09:34:46.965Z,56.00
2023-02-04T09:37:13.674Z,55.64
2023-02-04T09:39:40.402Z,55.81
2023-02-04T09:42:07.345Z,55.71
2023-02-04T09:44:34.081Z,55.88
2023-02-04T09:47:01.217Z,55.92
2023-02-04T09:49:28.414Z,55.74
2023-02-04T09:51:55.674Z,56.00
2023-02-04T09:54:23.313Z,55.87
2023-02-04T09:56:50.618Z,55.95
2023-02-04T09:59:22.467Z,56.08
2023-02-04T10:01:58.123Z,56.01
2023-02-04T10:04:25.008Z,55.81
2023-02-04T10:06:52.023Z,55.72
2023-02-04T10:09:18.871Z,55.57
2023-02-04T10:11:47.670Z,55.49
2023-02-04T10:14:18.174Z,55.22
2023-02-04T10:16:51.335Z,55.27
2023-02-04T10:19:18.088Z,55.22
2023-02-04T10:21:45.562Z,55.59
2023-02-04T10:24:20.981Z,55.03
2023-02-04T10:26:48.329Z,55.26
2023-02-04T10:29:17.595Z,55.22
2023-02-04T10:31:46.662Z,55.33
2023-02-04T10:34:15.881Z,55.31
2023-02-04T10:36:46.085Z,55.37
2023-02-04T10:39:14.598Z,55.41
2023-02-04T10:41:52.649Z,55.30
2023-02-04T10:44:25.228Z,55.31
2023-02-04T10:47:23.387Z,55.56
2023-02-04T10:50:14.841Z,55.10
2023-02-04T10:52:44.273Z,55.02
2023-02-04T10:55:14.347Z,54.92
2023-02-04T10:57:42.360Z,54.69
2023-02-04T11:00:35.447Z,54.56
2023-02-04T11:03:04.281Z,54.45
2023-02-04T11:05:33.177Z,54.43
2023-02-04T11:08:00.087Z,54.27
2023-02-04T11:10:34.388Z,54.30
2023-02-04T11:13:04.887Z,54.26
2023-02-04T11:15:39.387Z,54.22
2023-02-04T11:18:12.561Z,54.56
2023-02-04T11:20:40.625Z,54.37
2023-02-04T11:23:22.565Z,54.59
2023-02-04T11:25:49.264Z,54.82
2023-02-04T11:28:25.337Z,54.94
2023-02-04T11:31:06.790Z,54.75
2023-02-04T11:33:42.227Z,54.83
2023-02-04T11:36:11.914Z,54.45
2023-02-04T11:38:39.102Z,54.33
2023-02-04T11:41:06.142Z,54.02
2023-02-04T11:43:34.191Z,54.03
2023-02-04T11:46:03.922Z,53.85
2023-02-04T11:48:31.950Z,53.53
2023-02-04T11:51:00.748Z,53.40
2023-02-04T11:53:33.841Z,53.29
2023-02-04T11:56:00.622Z,53.18
2023-02-04T11:58:29.030Z,53.24
2023-02-04T12:00:55.736Z,53.31
2023-02-04T12:03:32.035Z,53.45
2023-02-04T12:05:58.851Z,53.19
2023-02-04T12:08:27.086Z,53.22
2023-02-04T12:11:07.483Z,53.02
2023-02-04T12:13:34.676Z,52.82
2023-02-04T12:16:04.539Z,52.82
2023-02-04T12:18:32.877Z,52.80
2023-02-04T12:21:00.559Z,52.76
2023-02-04T12:23:29.331Z,52.82
2023-02-04T12:25:56.392Z,52.69
2023-02-04T12:28:23.535Z,52.97
2023-02-04T12:30:50.292Z,52.80
2023-02-04T12:33:17.003Z,52.22
2023-02-04T12:35:43.689Z,52.38
2023-02-04T12:38:10.569Z,52.39
2023-02-04T12:40:37.615Z,52.23
2023-02-04T12:43:04.586Z,52.31
2023-02-04T12:45:32.133Z,52.30
2023-02-04T12:47:58.999Z,52.38
2023-02-04T12:50:26.627Z,52.46
2023-02-04T12:52:55.140Z,52.33
2023-02-04T12:55:23.547Z,52.50
2023-02-04T12:57:50.790Z,52.14
2023-02-04T13:00:18.614Z,52.41
2023-02-04T13:02:45.565Z,52.40
2023-02-04T13:05:13.141Z,52.26
2023-02-04T13:07:43.188Z,52.25
2023-02-04T13:10:10.346Z,52.22
2023-02-04T13:12:37.041Z,52.49
2023-02-04T13:15:05.063Z,52.33
2023-02-04T13:17:31.885Z,52.33
2023-02-04T13:19:58.615Z,52.45
2023-02-04T13:22:25.367Z,52.52
2023-02-04T13:24:52.317Z,52.40
2023-02-04T13:27:19.144Z,52.26
2023-02-04T13:29:45.869Z,52.13
2023-02-04T13:32:12.589Z,52.26
2023-02-04T13:34:39.373Z,52.18
2023-02-04T13:37:06.117Z,51.92
2023-02-04T13:39:32.850Z,52.13
2023-02-04T13:41:59.723Z,51.87
2023-02-04T13:44:26.416Z,52.15
2023-02-04T13:46:53.288Z,51.93
2023-02-04T13:49:21.555Z,51.92
2023-02-04T13:51:48.293Z,51.98
2023-02-04T13:54:15.037Z,51.95
2023-02-04T13:56:41.804Z,51.96
2023-02-04T13:59:08.508Z,51.65
2023-02-04T14:01:35.297Z,51.29
2023-02-04T14:04:02.179Z,51.25
2023-02-04T14:06:33.797Z,50.98
2023-02-04T14:09:01.207Z,50.80
2023-02-04T14:11:28.081Z,50.76
2023-02-04T14:13:54.856Z,50.77
2023-02-04T14:16:22.022Z,50.51
2023-02-04T14:18:48.804Z,50.59
2023-02-04T14:21:15.670Z,50.25
2023-02-04T14:23:42.388Z,50.49
2023-02-04T14:26:09.392Z,50.49
2023-02-04T14:28:36.147Z,49.70
2023-02-04T14:31:02.941Z,50.42
2023-02-04T14:33:29.857Z,50.04
2023-02-04T14:35:56.643Z,50.32
2023-02-04T14:38:23.461Z,50.51
2023-02-04T14:40:50.179Z,50.63
2023-02-04T14:43:16.961Z,50.33
2023-02-04T14:45:43.716Z,50.57
2023-02-04T14:48:10.509Z,50.36
2023-02-04T14:50:37.264Z,50.42
2023-02-04T14:53:04.017Z,50.58
2023-02-04T14:55:30.755Z,50.49
2023-02-04T14:57:57.447Z,50.62
2023-02-04T15:00:24.403Z,50.70
2023-02-04T15:02:51.359Z,50.75
2023-02-04T15:05:18.304Z,50.77
2023-02-04T15:07:45.039Z,50.33
2023-02-04T15:10:14.827Z,50.53
2023-02-04T15:12:41.932Z,50.56
2023-02-04T15:15:09.273Z,50.34
2023-02-04T15:17:36.085Z,50.13
2023-02-04T15:20:04.036Z,50.15
2023-02-04T15:22:30.809Z,50.06
2023-02-04T15:24:57.532Z,50.11
2023-02-04T15:27:24.988Z,50.03
2023-02-04T15:29:52.565Z,49.97
2023-02-04T15:32:19.372Z,49.96
2023-02-04T15:34:46.075Z,49.88
2023-02-04T15:37:13.137Z,49.87
2023-02-04T15:39:40.522Z,49.95
2023-02-04T15:42:07.344Z,50.00
2023-02-04T15:44:34.423Z,50.10
2023-02-04T15:47:01.978Z,50.03
2023-02-04T15:49:28.705Z,50.10
2023-02-04T15:51:55.464Z,50.25
2023-02-04T15:54:22.164Z,50.15
2023-02-04T15:56:48.928Z,50.07
2023-02-04T15:59:15.844Z,50.06
2023-02-04T16:01:42.630Z,50.14
2023-02-04T16:04:09.706Z,50.11
2023-02-04T16:06:36.495Z,50.10
2023-02-04T16:09:03.940Z,49.97
2023-02-04T16:11:31.049Z,49.88
2023-02-04T16:13:58.638Z,50.08
2023-02-04T16:16:25.457Z,50.12
2023-02-04T16:18:52.213Z,50.25
2023-02-04T16:21:18.975Z,49.97
2023-02-04T16:23:45.742Z,50.16
2023-02-04T16:26:12.691Z,50.36
2023-02-04T16:28:39.366Z,50.09
2023-02-04T16:31:10.175Z,50.14
2023-02-04T16:33:36.959Z,49.96
2023-02-04T16:36:12.605Z,50.09
2023-02-04T16:38:40.584Z,49.93
2023-02-04T16:41:07.540Z,49.90
2023-02-04T16:43:34.262Z,49.68
2023-02-04T16:46:00.984Z,49.52
2023-02-04T16:48:28.635Z,49.46
2023-02-04T16:50:55.453Z,49.53
2023-02-04T16:53:22.300Z,49.30
2023-02-04T16:55:49.183Z,49.09
2023-02-04T16:58:16.393Z,49.36
2023-02-04T17:00:44.117Z,49.44
2023-02-04T17:03:13.577Z,48.99
2023-02-04T17:05:40.725Z,48.98
2023-02-04T17:08:08.028Z,49.05
2023-02-04T17:10:53.363Z,48.85
2023-02-04T17:13:20.464Z,48.94
2023-02-04T17:15:47.209Z,49.34
2023-02-04T17:18:13.936Z,49.23
2023-02-04T17:20:40.716Z,49.46
2023-02-04T17:23:07.484Z,49.56
2023-02-04T17:25:34.511Z,49.14
2023-02-04T17:28:01.504Z,49.45
2023-02-04T17:30:28.427Z,49.08
2023-02-04T17:32:55.165Z,49.30
2023-02-04T17:35:21.898Z,49.92
2023-02-04T17:37:48.624Z,49.74
2023-02-04T17:40:15.455Z,49.27
2023-02-04T17:42:42.195Z,49.36
2023-02-04T17:45:10.627Z,49.29
2023-02-04T17:47:40.375Z,49.64
2023-02-04T17:50:09.747Z,49.38
2023-02-04T17:52:37.795Z,49.30
2023-02-04T17:55:24.321Z,49.24
2023-02-04T17:57:51.311Z,49.41
2023-02-04T18:00:20.265Z,49.61
2023-02-04T18:02:48.864Z,49.52
2023-02-04T18:05:27.111Z,49.26
2023-02-04T18:08:05.931Z,49.33
2023-02-04T18:10:35.542Z,49.48
2023-02-04T18:13:17.308Z,49.38
2023-02-04T18:15:50.804Z,49.36
2023-02-04T18:18:24.801Z,49.04
2023-02-04T18:21:05.150Z,49.11
2023-02-04T18:23:32.670Z,49.63
2023-02-04T18:26:12.341Z,49.38
2023-02-04T18:28:41.918Z,49.58
2023-02-04T18:31:24.958Z,49.78
2023-02-04T18:33:51.667Z,49.84
2023-02-04T18:36:20.509Z,49.64
2023-02-04T18:38:47.402Z,49.90
2023-02-04T18:41:23.039Z,49.76
2023-02-04T18:43:51.659Z,49.49
2023-02-04T18:46:26.953Z,49.83
2023-02-04T18:49:07.309Z,49.60
2023-02-04T18:51:38.962Z,50.07
2023-02-04T18:54:24.678Z,49.84
2023-02-04T18:56:53.486Z,49.35
2023-02-04T18:59:20.904Z,50.10
2023-02-04T19:01:48.108Z,49.49
2023-02-04T19:04:23.750Z,49.48
2023-02-04T19:06:53.040Z,49.86
2023-02-04T19:09:32.523Z,49.62
2023-02-04T19:12:00.949Z,49.66
2023-02-04T19:14:35.477Z,49.61
2023-02-04T19:17:20.551Z,49.81
2023-02-04T19:20:21.180Z,49.51
2023-02-04T19:22:54.163Z,49.87
2023-02-04T19:25:37.691Z,49.52
2023-02-04T19:28:34.012Z,49.52
2023-02-04T19:31:01.786Z,49.90
2023-02-04T19:33:43.111Z,49.69
2023-02-04T19:36:31.761Z,49.57
2023-02-04T19:39:00.544Z,49.78
2023-02-04T19:41:49.554Z,49.63
2023-02-04T19:44:40.914Z,49.55
2023-02-04T19:47:20.509Z,49.88
2023-02-04T19:49:47.195Z,50.04
2023-02-04T19:52:30.311Z,49.92
2023-02-04T19:55:20.086Z,49.83
2023-02-04T19:57:55.966Z,50.05
2023-02-04T20:00:38.637Z,50.07
2023-02-04T20:03:48.040Z,50.02
2023-02-04T20:06:29.817Z,49.97
2023-02-04T20:09:01.597Z,50.16
2023-02-04T20:11:31.361Z,50.14
2023-02-04T20:14:16.340Z,50.22
2023-02-04T20:16:46.760Z,50.47
2023-02-04T20:19:27.640Z,50.59
2023-02-04T20:22:23.346Z,50.63
2023-02-04T20:25:22.864Z,50.69
2023-02-04T20:27:56.978Z,50.57
2023-02-04T20:30:28.556Z,50.56
2023-02-04T20:32:59.767Z,50.23
2023-02-04T20:35:31.438Z,50.33
2023-02-04T20:37:59.789Z,50.27
2023-02-04T20:40:34.189Z,50.25
2023-02-04T20:43:02.504Z,50.72
2023-02-04T20:45:36.569Z,50.64
2023-02-04T20:48:15.426Z,50.83
2023-02-04T20:50:47.150Z,50.77
2023-02-04T20:53:27.780Z,50.39
2023-02-04T20:56:03.628Z,50.79
2023-02-04T20:58:34.499Z,50.78
2023-02-04T21:01:01.239Z,50.55
2023-02-04T21:03:36.453Z,50.72
2023-02-04T21:06:20.798Z,50.58
2023-02-04T21:08:49.409Z,50.51
2023-02-04T21:11:16.166Z,50.60
2023-02-04T21:13:42.930Z,50.50
2023-02-04T21:16:09.880Z,50.88
2023-02-04T21:18:37.047Z,50.63
2023-02-04T21:21:04.946Z,50.70
2023-02-04T21:23:31.641Z,50.81
2023-02-04T21:25:58.343Z,50.48
2023-02-04T21:28:25.029Z,50.51
2023-02-04T21:30:51.848Z,50.81
2023-02-04T21:33:18.629Z,50.71
2023-02-04T21:35:45.487Z,50.75
2023-02-04T21:38:12.311Z,50.94
2023-02-04T21:40:39.175Z,50.72
2023-02-04T21:43:08.188Z,50.47
2023-02-04T21:45:37.191Z,50.76
2023-02-04T21:48:04.726Z,50.58
2023-02-04T21:50:32.915Z,50.93
2023-02-04T21:52:59.929Z,50.54
2023-02-04T21:55:27.025Z,50.94
2023-02-04T21:57:53.832Z,50.50
2023-02-04T22:00:24.754Z,50.49
2023-02-04T22:02:52.220Z,50.91
2023-02-04T22:05:19.712Z,50.80
2023-02-04T22:07:46.525Z,50.52
2023-02-04T22:10:18.254Z,50.61
2023-02-04T22:12:44.941Z,50.67
2023-02-04T22:15:11.626Z,50.74
2023-02-04T22:17:38.310Z,50.63
2023-02-04T22:20:05.550Z,50.87
2023-02-04T22:22:32.421Z,50.76
2023-02-04T22:24:59.169Z,50.39
2023-02-04T22:27:25.945Z,50.72
2023-02-04T22:29:52.934Z,50.44
2023-02-04T22:32:19.661Z,50.84
2023-02-04T22:34:46.383Z,50.52
2023-02-04T22:37:13.079Z,50.65
2023-02-04T22:39:39.812Z,50.37
2023-02-04T22:42:08.443Z,50.45
2023-02-04T22:44:35.211Z,50.71
2023-02-04T22:47:01.952Z,50.87
2023-02-04T22:49:29.094Z,50.58
2023-02-04T22:51:55.820Z,50.47
2023-02-04T22:54:22.503Z,50.30
2023-02-04T22:56:49.197Z,50.44
2023-02-04T22:59:15.882Z,50.29
2023-02-04T23:01:42.679Z,50.60
2023-02-04T23:04:09.407Z,50.62
2023-02-04T23:06:37.317Z,50.33
2023-02-04T23:09:04.391Z,50.48
2023-02-04T23:11:31.112Z,50.74
2023-02-04T23:13:57.823Z,50.70
2023-02-04T23:16:24.667Z,50.93
2023-02-04T23:18:51.391Z,50.60
2023-02-04T23:21:20.096Z,50.82
2023-02-04T23:23:47.456Z,50.85
2023-02-04T23:26:14.586Z,50.70
2023-02-04T23:28:41.417Z,50.90
2023-02-04T23:31:08.192Z,51.24
2023-02-04T23:33:34.989Z,50.76
2023-02-04T23:36:01.970Z,50.98
2023-02-04T23:38:31.065Z,51.15
2023-02-04T23:40:59.975Z,51.06
2023-02-04T23:43:27.592Z,51.08
2023-02-04T23:45:56.653Z,51.03
2023-02-04T23:48:24.249Z,51.09
2023-02-04T23:50:51.213Z,51.25
2023-02-04T23:53:19.246Z,51.39
2023-02-04T23:55:46.073Z,51.19
2023-02-04T23:58:12.881Z,51.30
